sensor_id;sensor_type;location;lat;lon;timestamp;P1;durP1;ratioP1;P2;durP2;ratioP2
13891;SDS011;7016;48.172;8.058;2023-04-28T00:00:18;3.28;;;2.20;;
13891;SDS011;7016;48.172;8.058;2023-04-28T00:02:43;4.15;;;2.70;;
13891;SDS011;7016;48.172;8.058;2023-04-28T00:05:11;5.90;;;2.70;;
13891;SDS011;7016;48.172;8.058;2023-04-28T00:07:36;4.95;;;2.20;;
13891;SDS011;7016;48.172;8.058;2023-04-28T00:10:02;3.20;;;2.13;;
13891;SDS011;7016;48.172;8.058;2023-04-28T00:12:28;4.22;;;2.17;;
13891;SDS011;7016;48.172;8.058;2023-04-28T00:14:53;5.55;;;2.25;;
13891;SDS011;7016;48.172;8.058;2023-04-28T00:17:19;5.38;;;2.60;;
13891;SDS011;7016;48.172;8.058;2023-04-28T00:19:45;3.83;;;2.17;;
13891;SDS011;7016;48.172;8.058;2023-04-28T00:22:11;4.50;;;2.42;;
13891;SDS011;7016;48.172;8.058;2023-04-28T00:24:36;4.35;;;2.40;;
13891;SDS011;7016;48.172;8.058;2023-04-28T00:27:02;4.05;;;2.42;;
13891;SDS011;7016;48.172;8.058;2023-04-28T00:29:28;4.05;;;2.30;;
13891;SDS011;7016;48.172;8.058;2023-04-28T00:31:53;5.05;;;2.38;;
13891;SDS011;7016;48.172;8.058;2023-04-28T00:34:19;3.83;;;2.40;;
13891;SDS011;7016;48.172;8.058;2023-04-28T00:36:45;3.35;;;2.22;;
13891;SDS011;7016;48.172;8.058;2023-04-28T00:39:11;3.33;;;2.35;;
13891;SDS011;7016;48.172;8.058;2023-04-28T00:41:36;3.80;;;2.38;;
13891;SDS011;7016;48.172;8.058;2023-04-28T00:44:02;5.47;;;2.78;;
13891;SDS011;7016;48.172;8.058;2023-04-28T00:46:31;5.43;;;2.40;;
13891;SDS011;7016;48.172;8.058;2023-04-28T00:48:58;4.63;;;2.70;;
13891;SDS011;7016;48.172;8.058;2023-04-28T00:51:24;5.93;;;2.50;;
13891;SDS011;7016;48.172;8.058;2023-04-28T00:53:51;4.45;;;2.20;;
13891;SDS011;7016;48.172;8.058;2023-04-28T00:56:17;6.65;;;2.28;;
13891;SDS011;7016;48.172;8.058;2023-04-28T00:58:44;3.83;;;2.17;;
13891;SDS011;7016;48.172;8.058;2023-04-28T01:01:10;3.35;;;2.33;;
13891;SDS011;7016;48.172;8.058;2023-04-28T01:03:37;4.72;;;2.55;;
13891;SDS011;7016;48.172;8.058;2023-04-28T01:06:05;4.10;;;2.53;;
13891;SDS011;7016;48.172;8.058;2023-04-28T01:08:33;3.58;;;2.60;;
13891;SDS011;7016;48.172;8.058;2023-04-28T01:11:00;3.05;;;2.30;;
13891;SDS011;7016;48.172;8.058;2023-04-28T01:13:26;5.05;;;2.38;;
13891;SDS011;7016;48.172;8.058;2023-04-28T01:15:52;6.53;;;2.10;;
13891;SDS011;7016;48.172;8.058;2023-04-28T01:18:19;4.45;;;2.63;;
13891;SDS011;7016;48.172;8.058;2023-04-28T01:20:45;5.38;;;2.50;;
13891;SDS011;7016;48.172;8.058;2023-04-28T01:23:11;6.05;;;2.30;;
13891;SDS011;7016;48.172;8.058;2023-04-28T01:25:38;4.38;;;2.00;;
13891;SDS011;7016;48.172;8.058;2023-04-28T01:28:04;7.00;;;2.40;;
13891;SDS011;7016;48.172;8.058;2023-04-28T01:30:30;3.75;;;2.25;;
13891;SDS011;7016;48.172;8.058;2023-04-28T01:32:55;5.80;;;2.40;;
13891;SDS011;7016;48.172;8.058;2023-04-28T01:35:21;5.80;;;2.70;;
13891;SDS011;7016;48.172;8.058;2023-04-28T01:37:47;3.55;;;2.28;;
13891;SDS011;7016;48.172;8.058;2023-04-28T01:40:12;3.55;;;2.10;;
13891;SDS011;7016;48.172;8.058;2023-04-28T01:42:38;4.68;;;2.40;;
13891;SDS011;7016;48.172;8.058;2023-04-28T01:45:04;4.65;;;2.65;;
13891;SDS011;7016;48.172;8.058;2023-04-28T01:47:30;4.15;;;2.50;;
13891;SDS011;7016;48.172;8.058;2023-04-28T01:49:56;6.43;;;2.30;;
13891;SDS011;7016;48.172;8.058;2023-04-28T01:52:21;4.53;;;2.45;;
13891;SDS011;7016;48.172;8.058;2023-04-28T01:54:48;4.95;;;2.47;;
13891;SDS011;7016;48.172;8.058;2023-04-28T01:57:14;3.78;;;2.47;;
13891;SDS011;7016;48.172;8.058;2023-04-28T01:59:40;3.35;;;2.30;;
13891;SDS011;7016;48.172;8.058;2023-04-28T02:02:06;6.35;;;2.35;;
13891;SDS011;7016;48.172;8.058;2023-04-28T02:04:32;2.92;;;2.08;;
13891;SDS011;7016;48.172;8.058;2023-04-28T02:06:57;6.35;;;2.83;;
13891;SDS011;7016;48.172;8.058;2023-04-28T02:09:23;5.38;;;2.70;;
13891;SDS011;7016;48.172;8.058;2023-04-28T02:11:49;4.35;;;2.50;;
13891;SDS011;7016;48.172;8.058;2023-04-28T02:14:15;3.53;;;2.50;;
13891;SDS011;7016;48.172;8.058;2023-04-28T02:16:41;8.15;;;3.00;;
13891;SDS011;7016;48.172;8.058;2023-04-28T02:19:06;7.78;;;3.53;;
13891;SDS011;7016;48.172;8.058;2023-04-28T02:21:32;7.97;;;3.42;;
13891;SDS011;7016;48.172;8.058;2023-04-28T02:23:58;6.63;;;2.95;;
13891;SDS011;7016;48.172;8.058;2023-04-28T02:26:23;4.75;;;2.40;;
13891;SDS011;7016;48.172;8.058;2023-04-28T02:28:50;5.18;;;2.83;;
13891;SDS011;7016;48.172;8.058;2023-04-28T02:31:15;5.70;;;3.25;;
13891;SDS011;7016;48.172;8.058;2023-04-28T02:33:41;8.32;;;3.42;;
13891;SDS011;7016;48.172;8.058;2023-04-28T02:36:07;6.20;;;3.35;;
13891;SDS011;7016;48.172;8.058;2023-04-28T02:38:33;5.70;;;3.38;;
13891;SDS011;7016;48.172;8.058;2023-04-28T02:40:59;5.72;;;2.63;;
13891;SDS011;7016;48.172;8.058;2023-04-28T02:43:28;4.85;;;2.58;;
13891;SDS011;7016;48.172;8.058;2023-04-28T02:45:55;4.78;;;2.60;;
13891;SDS011;7016;48.172;8.058;2023-04-28T02:48:21;8.15;;;2.78;;
13891;SDS011;7016;48.172;8.058;2023-04-28T02:50:47;6.18;;;2.78;;
13891;SDS011;7016;48.172;8.058;2023-04-28T02:53:13;8.82;;;3.08;;
13891;SDS011;7016;48.172;8.058;2023-04-28T02:55:39;5.70;;;3.05;;
13891;SDS011;7016;48.172;8.058;2023-04-28T02:58:04;5.68;;;2.90;;
13891;SDS011;7016;48.172;8.058;2023-04-28T03:00:30;10.45;;;3.40;;
13891;SDS011;7016;48.172;8.058;2023-04-28T03:02:56;6.55;;;2.83;;
13891;SDS011;7016;48.172;8.058;2023-04-28T03:05:21;7.70;;;3.08;;
13891;SDS011;7016;48.172;8.058;2023-04-28T03:07:47;7.20;;;2.83;;
13891;SDS011;7016;48.172;8.058;2023-04-28T03:10:13;9.10;;;3.20;;
13891;SDS011;7016;48.172;8.058;2023-04-28T03:12:38;5.90;;;3.00;;
13891;SDS011;7016;48.172;8.058;2023-04-28T03:15:04;4.63;;;3.20;;
13891;SDS011;7016;48.172;8.058;2023-04-28T03:17:32;6.85;;;3.20;;
13891;SDS011;7016;48.172;8.058;2023-04-28T03:20:00;5.72;;;3.38;;
13891;SDS011;7016;48.172;8.058;2023-04-28T03:22:26;8.07;;;3.38;;
13891;SDS011;7016;48.172;8.058;2023-04-28T03:24:52;5.05;;;3.70;;
13891;SDS011;7016;48.172;8.058;2023-04-28T03:27:18;6.78;;;4.05;;
13891;SDS011;7016;48.172;8.058;2023-04-28T03:29:44;6.35;;;3.95;;
13891;SDS011;7016;48.172;8.058;2023-04-28T03:32:09;16.77;;;6.53;;
13891;SDS011;7016;48.172;8.058;2023-04-28T03:34:36;16.13;;;7.45;;
13891;SDS011;7016;48.172;8.058;2023-04-28T03:37:01;14.48;;;7.00;;
13891;SDS011;7016;48.172;8.058;2023-04-28T03:39:27;12.65;;;6.18;;
13891;SDS011;7016;48.172;8.058;2023-04-28T03:41:53;10.43;;;5.50;;
13891;SDS011;7016;48.172;8.058;2023-04-28T03:44:19;12.18;;;4.75;;
13891;SDS011;7016;48.172;8.058;2023-04-28T03:46:45;14.32;;;5.03;;
13891;SDS011;7016;48.172;8.058;2023-04-28T03:49:12;15.73;;;6.50;;
13891;SDS011;7016;48.172;8.058;2023-04-28T03:51:38;15.57;;;6.20;;
13891;SDS011;7016;48.172;8.058;2023-04-28T03:54:05;14.93;;;6.38;;
13891;SDS011;7016;48.172;8.058;2023-04-28T03:56:31;13.15;;;6.25;;
13891;SDS011;7016;48.172;8.058;2023-04-28T03:58:56;9.65;;;6.15;;
13891;SDS011;7016;48.172;8.058;2023-04-28T04:01:22;11.32;;;5.80;;
13891;SDS011;7016;48.172;8.058;2023-04-28T04:03:48;25.95;;;10.00;;
13891;SDS011;7016;48.172;8.058;2023-04-28T04:06:14;20.35;;;9.75;;
13891;SDS011;7016;48.172;8.058;2023-04-28T04:08:40;20.52;;;9.45;;
13891;SDS011;7016;48.172;8.058;2023-04-28T04:11:05;27.08;;;10.50;;
13891;SDS011;7016;48.172;8.058;2023-04-28T04:13:31;21.70;;;10.18;;
13891;SDS011;7016;48.172;8.058;2023-04-28T04:15:57;27.80;;;11.00;;
13891;SDS011;7016;48.172;8.058;2023-04-28T04:18:23;22.35;;;11.02;;
13891;SDS011;7016;48.172;8.058;2023-04-28T04:20:48;22.00;;;10.05;;
13891;SDS011;7016;48.172;8.058;2023-04-28T04:23:14;21.15;;;10.95;;
13891;SDS011;7016;48.172;8.058;2023-04-28T04:25:40;26.02;;;11.98;;
13891;SDS011;7016;48.172;8.058;2023-04-28T04:28:06;16.75;;;9.07;;
13891;SDS011;7016;48.172;8.058;2023-04-28T04:30:32;14.68;;;7.15;;
13891;SDS011;7016;48.172;8.058;2023-04-28T04:32:58;10.75;;;5.20;;
13891;SDS011;7016;48.172;8.058;2023-04-28T04:35:23;11.65;;;6.40;;
13891;SDS011;7016;48.172;8.058;2023-04-28T04:37:49;7.55;;;4.75;;
13891;SDS011;7016;48.172;8.058;2023-04-28T04:40:15;11.00;;;5.78;;
13891;SDS011;7016;48.172;8.058;2023-04-28T04:42:41;9.18;;;5.40;;
13891;SDS011;7016;48.172;8.058;2023-04-28T04:45:07;10.05;;;5.70;;
13891;SDS011;7016;48.172;8.058;2023-04-28T04:47:33;12.10;;;6.47;;
13891;SDS011;7016;48.172;8.058;2023-04-28T04:49:59;12.18;;;6.45;;
13891;SDS011;7016;48.172;8.058;2023-04-28T04:52:24;11.00;;;6.38;;
13891;SDS011;7016;48.172;8.058;2023-04-28T04:54:50;17.50;;;9.20;;
13891;SDS011;7016;48.172;8.058;2023-04-28T04:57:16;34.90;;;21.55;;
13891;SDS011;7016;48.172;8.058;2023-04-28T04:59:42;49.15;;;27.80;;
13891;SDS011;7016;48.172;8.058;2023-04-28T05:02:07;41.65;;;25.38;;
13891;SDS011;7016;48.172;8.058;2023-04-28T05:04:33;18.10;;;10.43;;
13891;SDS011;7016;48.172;8.058;2023-04-28T05:06:59;13.27;;;7.32;;
13891;SDS011;7016;48.172;8.058;2023-04-28T05:09:24;14.27;;;8.00;;
13891;SDS011;7016;48.172;8.058;2023-04-28T05:11:50;14.38;;;8.18;;
13891;SDS011;7016;48.172;8.058;2023-04-28T05:14:16;12.07;;;6.50;;
13891;SDS011;7016;48.172;8.058;2023-04-28T05:16:42;12.02;;;7.18;;
13891;SDS011;7016;48.172;8.058;2023-04-28T05:19:08;30.38;;;12.82;;
13891;SDS011;7016;48.172;8.058;2023-04-28T05:21:33;18.30;;;10.45;;
13891;SDS011;7016;48.172;8.058;2023-04-28T05:23:59;23.67;;;12.52;;
13891;SDS011;7016;48.172;8.058;2023-04-28T05:26:26;21.33;;;11.05;;
13891;SDS011;7016;48.172;8.058;2023-04-28T05:28:51;19.83;;;10.85;;
13891;SDS011;7016;48.172;8.058;2023-04-28T05:31:18;21.20;;;12.23;;
13891;SDS011;7016;48.172;8.058;2023-04-28T05:33:43;18.90;;;10.50;;
13891;SDS011;7016;48.172;8.058;2023-04-28T05:36:09;22.88;;;12.30;;
13891;SDS011;7016;48.172;8.058;2023-04-28T05:38:35;27.27;;;14.20;;
13891;SDS011;7016;48.172;8.058;2023-04-28T05:41:01;28.73;;;14.43;;
13891;SDS011;7016;48.172;8.058;2023-04-28T05:43:27;25.98;;;12.25;;
13891;SDS011;7016;48.172;8.058;2023-04-28T05:45:52;14.10;;;7.95;;
13891;SDS011;7016;48.172;8.058;2023-04-28T05:48:18;12.88;;;6.57;;
13891;SDS011;7016;48.172;8.058;2023-04-28T05:50:44;9.95;;;6.65;;
13891;SDS011;7016;48.172;8.058;2023-04-28T05:53:10;11.18;;;6.05;;
13891;SDS011;7016;48.172;8.058;2023-04-28T05:55:36;11.38;;;6.20;;
13891;SDS011;7016;48.172;8.058;2023-04-28T05:58:02;13.65;;;6.50;;
13891;SDS011;7016;48.172;8.058;2023-04-28T06:00:28;12.02;;;6.07;;
13891;SDS011;7016;48.172;8.058;2023-04-28T06:02:53;12.20;;;5.43;;
13891;SDS011;7016;48.172;8.058;2023-04-28T06:05:19;21.52;;;8.30;;
13891;SDS011;7016;48.172;8.058;2023-04-28T06:07:45;15.40;;;9.65;;
13891;SDS011;7016;48.172;8.058;2023-04-28T06:10:11;10.02;;;7.38;;
13891;SDS011;7016;48.172;8.058;2023-04-28T06:12:37;11.50;;;6.13;;
13891;SDS011;7016;48.172;8.058;2023-04-28T06:15:03;6.72;;;4.90;;
13891;SDS011;7016;48.172;8.058;2023-04-28T06:17:30;7.35;;;5.45;;
13891;SDS011;7016;48.172;8.058;2023-04-28T06:19:57;9.43;;;6.20;;
13891;SDS011;7016;48.172;8.058;2023-04-28T06:22:26;9.50;;;5.70;;
13891;SDS011;7016;48.172;8.058;2023-04-28T06:24:52;11.02;;;5.82;;
13891;SDS011;7016;48.172;8.058;2023-04-28T06:27:17;12.95;;;6.13;;
13891;SDS011;7016;48.172;8.058;2023-04-28T06:29:43;7.32;;;4.47;;
13891;SDS011;7016;48.172;8.058;2023-04-28T06:32:09;6.93;;;4.88;;
13891;SDS011;7016;48.172;8.058;2023-04-28T06:34:35;7.80;;;4.57;;
13891;SDS011;7016;48.172;8.058;2023-04-28T06:37:01;9.68;;;4.97;;
13891;SDS011;7016;48.172;8.058;2023-04-28T06:39:27;8.02;;;5.07;;
13891;SDS011;7016;48.172;8.058;2023-04-28T06:41:53;10.35;;;4.95;;
13891;SDS011;7016;48.172;8.058;2023-04-28T06:44:19;15.18;;;7.55;;
13891;SDS011;7016;48.172;8.058;2023-04-28T06:46:44;11.38;;;6.72;;
13891;SDS011;7016;48.172;8.058;2023-04-28T06:49:10;11.63;;;6.40;;
13891;SDS011;7016;48.172;8.058;2023-04-28T06:51:36;8.27;;;4.85;;
13891;SDS011;7016;48.172;8.058;2023-04-28T06:54:01;6.32;;;4.40;;
13891;SDS011;7016;48.172;8.058;2023-04-28T06:56:27;20.05;;;8.13;;
13891;SDS011;7016;48.172;8.058;2023-04-28T06:58:53;14.05;;;6.00;;
13891;SDS011;7016;48.172;8.058;2023-04-28T07:01:20;7.72;;;5.22;;
13891;SDS011;7016;48.172;8.058;2023-04-28T07:03:46;7.13;;;4.50;;
13891;SDS011;7016;48.172;8.058;2023-04-28T07:06:13;6.82;;;3.38;;
13891;SDS011;7016;48.172;8.058;2023-04-28T07:08:46;7.50;;;3.60;;
13891;SDS011;7016;48.172;8.058;2023-04-28T07:11:12;5.57;;;3.00;;
13891;SDS011;7016;48.172;8.058;2023-04-28T07:13:37;4.57;;;3.03;;
13891;SDS011;7016;48.172;8.058;2023-04-28T07:16:03;4.97;;;2.95;;
13891;SDS011;7016;48.172;8.058;2023-04-28T07:18:29;6.53;;;3.47;;
13891;SDS011;7016;48.172;8.058;2023-04-28T07:20:55;4.72;;;2.67;;
13891;SDS011;7016;48.172;8.058;2023-04-28T07:23:20;7.07;;;3.67;;
13891;SDS011;7016;48.172;8.058;2023-04-28T07:25:46;7.10;;;4.13;;
13891;SDS011;7016;48.172;8.058;2023-04-28T07:28:12;9.43;;;4.00;;
13891;SDS011;7016;48.172;8.058;2023-04-28T07:30:38;4.22;;;2.63;;
13891;SDS011;7016;48.172;8.058;2023-04-28T07:33:04;5.20;;;3.22;;
13891;SDS011;7016;48.172;8.058;2023-04-28T07:35:30;5.30;;;3.00;;
13891;SDS011;7016;48.172;8.058;2023-04-28T07:37:56;10.05;;;3.30;;
13891;SDS011;7016;48.172;8.058;2023-04-28T07:40:22;6.65;;;3.35;;
13891;SDS011;7016;48.172;8.058;2023-04-28T07:42:48;7.80;;;3.20;;
13891;SDS011;7016;48.172;8.058;2023-04-28T07:45:14;4.35;;;3.00;;
13891;SDS011;7016;48.172;8.058;2023-04-28T07:47:40;5.30;;;3.38;;
13891;SDS011;7016;48.172;8.058;2023-04-28T07:50:06;5.00;;;3.80;;
13891;SDS011;7016;48.172;8.058;2023-04-28T07:52:33;4.90;;;3.60;;
13891;SDS011;7016;48.172;8.058;2023-04-28T07:54:58;8.55;;;3.70;;
13891;SDS011;7016;48.172;8.058;2023-04-28T07:57:24;11.13;;;3.38;;
13891;SDS011;7016;48.172;8.058;2023-04-28T07:59:51;6.93;;;3.08;;
13891;SDS011;7016;48.172;8.058;2023-04-28T08:02:17;6.70;;;3.00;;
13891;SDS011;7016;48.172;8.058;2023-04-28T08:04:44;7.53;;;4.10;;
13891;SDS011;7016;48.172;8.058;2023-04-28T08:07:10;4.13;;;3.20;;
13891;SDS011;7016;48.172;8.058;2023-04-28T08:09:36;6.00;;;3.10;;
13891;SDS011;7016;48.172;8.058;2023-04-28T08:12:04;5.28;;;3.50;;
13891;SDS011;7016;48.172;8.058;2023-04-28T08:14:30;4.95;;;3.20;;
13891;SDS011;7016;48.172;8.058;2023-04-28T08:16:56;6.80;;;3.20;;
13891;SDS011;7016;48.172;8.058;2023-04-28T08:19:21;4.57;;;3.17;;
13891;SDS011;7016;48.172;8.058;2023-04-28T08:21:47;4.60;;;3.10;;
13891;SDS011;7016;48.172;8.058;2023-04-28T08:24:13;4.82;;;3.00;;
13891;SDS011;7016;48.172;8.058;2023-04-28T08:26:38;6.45;;;3.20;;
13891;SDS011;7016;48.172;8.058;2023-04-28T08:29:04;7.25;;;3.20;;
13891;SDS011;7016;48.172;8.058;2023-04-28T08:31:30;7.55;;;3.17;;
13891;SDS011;7016;48.172;8.058;2023-04-28T08:33:56;5.95;;;2.95;;
13891;SDS011;7016;48.172;8.058;2023-04-28T08:36:22;4.05;;;2.58;;
13891;SDS011;7016;48.172;8.058;2023-04-28T08:38:49;4.32;;;2.67;;
13891;SDS011;7016;48.172;8.058;2023-04-28T08:41:15;4.47;;;2.85;;
13891;SDS011;7016;48.172;8.058;2023-04-28T08:43:41;3.38;;;2.10;;
13891;SDS011;7016;48.172;8.058;2023-04-28T08:46:08;3.22;;;2.35;;
13891;SDS011;7016;48.172;8.058;2023-04-28T08:48:41;5.63;;;2.50;;
13891;SDS011;7016;48.172;8.058;2023-04-28T08:51:12;3.20;;;2.30;;
13891;SDS011;7016;48.172;8.058;2023-04-28T08:53:40;3.80;;;2.50;;
13891;SDS011;7016;48.172;8.058;2023-04-28T08:56:12;2.83;;;2.50;;
13891;SDS011;7016;48.172;8.058;2023-04-28T08:58:40;4.63;;;2.70;;
13891;SDS011;7016;48.172;8.058;2023-04-28T09:01:07;7.90;;;4.40;;
13891;SDS011;7016;48.172;8.058;2023-04-28T09:03:33;3.78;;;3.28;;
13891;SDS011;7016;48.172;8.058;2023-04-28T09:06:00;5.38;;;3.35;;
13891;SDS011;7016;48.172;8.058;2023-04-28T09:08:26;6.75;;;3.80;;
13891;SDS011;7016;48.172;8.058;2023-04-28T09:11:10;6.18;;;3.70;;
13891;SDS011;7016;48.172;8.058;2023-04-28T09:13:37;5.47;;;3.42;;
13891;SDS011;7016;48.172;8.058;2023-04-28T09:16:04;4.45;;;3.80;;
13891;SDS011;7016;48.172;8.058;2023-04-28T09:18:30;4.30;;;3.53;;
13891;SDS011;7016;48.172;8.058;2023-04-28T09:23:35;6.20;;;3.40;;
13891;SDS011;7016;48.172;8.058;2023-04-28T09:26:14;5.47;;;3.20;;
13891;SDS011;7016;48.172;8.058;2023-04-28T09:28:40;6.53;;;4.03;;
13891;SDS011;7016;48.172;8.058;2023-04-28T09:31:09;4.20;;;3.42;;
13891;SDS011;7016;48.172;8.058;2023-04-28T09:33:57;3.22;;;2.50;;
13891;SDS011;7016;48.172;8.058;2023-04-28T09:36:26;6.32;;;2.50;;
13891;SDS011;7016;48.172;8.058;2023-04-28T09:38:56;4.78;;;2.90;;
13891;SDS011;7016;48.172;8.058;2023-04-28T09:41:33;5.07;;;2.83;;
13891;SDS011;7016;48.172;8.058;2023-04-28T09:46:40;7.70;;;3.13;;
13891;SDS011;7016;48.172;8.058;2023-04-28T09:49:10;3.70;;;3.03;;
13891;SDS011;7016;48.172;8.058;2023-04-28T09:51:37;3.38;;;2.85;;
13891;SDS011;7016;48.172;8.058;2023-04-28T09:54:03;3.90;;;2.20;;
13891;SDS011;7016;48.172;8.058;2023-04-28T09:56:30;4.18;;;2.10;;
13891;SDS011;7016;48.172;8.058;2023-04-28T09:58:57;3.50;;;2.30;;
13891;SDS011;7016;48.172;8.058;2023-04-28T10:01:24;3.55;;;1.88;;
13891;SDS011;7016;48.172;8.058;2023-04-28T10:03:52;2.45;;;2.05;;
13891;SDS011;7016;48.172;8.058;2023-04-28T10:06:20;3.00;;;2.35;;
13891;SDS011;7016;48.172;8.058;2023-04-28T10:08:46;4.72;;;2.40;;
13891;SDS011;7016;48.172;8.058;2023-04-28T10:11:15;4.20;;;1.98;;
13891;SDS011;7016;48.172;8.058;2023-04-28T10:13:41;3.72;;;2.28;;
13891;SDS011;7016;48.172;8.058;2023-04-28T10:16:08;3.78;;;2.60;;
13891;SDS011;7016;48.172;8.058;2023-04-28T10:18:34;5.05;;;2.60;;
13891;SDS011;7016;48.172;8.058;2023-04-28T10:21:02;4.72;;;2.30;;
13891;SDS011;7016;48.172;8.058;2023-04-28T10:26:18;4.95;;;2.40;;
13891;SDS011;7016;48.172;8.058;2023-04-28T10:28:46;5.25;;;2.70;;
13891;SDS011;7016;48.172;8.058;2023-04-28T10:31:16;3.30;;;2.80;;
13891;SDS011;7016;48.172;8.058;2023-04-28T10:33:45;5.25;;;2.63;;
13891;SDS011;7016;48.172;8.058;2023-04-28T10:36:44;5.53;;;2.97;;
13891;SDS011;7016;48.172;8.058;2023-04-28T10:39:12;3.78;;;2.92;;
13891;SDS011;7016;48.172;8.058;2023-04-28T10:41:38;6.95;;;3.58;;
13891;SDS011;7016;48.172;8.058;2023-04-28T10:44:49;6.10;;;3.50;;
13891;SDS011;7016;48.172;8.058;2023-04-28T10:46:59;25.63;;;12.57;;
13891;SDS011;7016;48.172;8.058;2023-04-28T10:53:05;6.63;;;3.47;;
13891;SDS011;7016;48.172;8.058;2023-04-28T11:00:45;6.05;;;4.10;;
13891;SDS011;7016;48.172;8.058;2023-04-28T11:06:18;6.03;;;3.53;;
13891;SDS011;7016;48.172;8.058;2023-04-28T11:08:50;6.57;;;3.63;;
13891;SDS011;7016;48.172;8.058;2023-04-28T11:11:29;5.55;;;3.63;;
13891;SDS011;7016;48.172;8.058;2023-04-28T11:19:16;6.68;;;3.85;;
13891;SDS011;7016;48.172;8.058;2023-04-28T11:21:43;5.32;;;3.40;;
13891;SDS011;7016;48.172;8.058;2023-04-28T11:24:11;7.60;;;3.40;;
13891;SDS011;7016;48.172;8.058;2023-04-28T11:26:36;5.47;;;3.60;;
13891;SDS011;7016;48.172;8.058;2023-04-28T11:29:03;4.22;;;3.33;;
13891;SDS011;7016;48.172;8.058;2023-04-28T11:31:30;5.40;;;3.55;;
13891;SDS011;7016;48.172;8.058;2023-04-28T11:39:03;6.30;;;3.40;;
13891;SDS011;7016;48.172;8.058;2023-04-28T11:41:31;7.07;;;3.13;;
13891;SDS011;7016;48.172;8.058;2023-04-28T11:43:58;5.25;;;3.40;;
13891;SDS011;7016;48.172;8.058;2023-04-28T11:46:25;4.18;;;3.22;;
13891;SDS011;7016;48.172;8.058;2023-04-28T11:48:58;4.30;;;3.28;;
13891;SDS011;7016;48.172;8.058;2023-04-28T11:51:38;6.32;;;3.50;;
13891;SDS011;7016;48.172;8.058;2023-04-28T11:54:04;4.90;;;3.58;;
13891;SDS011;7016;48.172;8.058;2023-04-28T11:56:35;6.15;;;3.70;;
13891;SDS011;7016;48.172;8.058;2023-04-28T11:59:03;6.47;;;3.63;;
13891;SDS011;7016;48.172;8.058;2023-04-28T12:01:31;8.63;;;3.72;;
13891;SDS011;7016;48.172;8.058;2023-04-28T12:03:57;6.43;;;3.53;;
13891;SDS011;7016;48.172;8.058;2023-04-28T12:06:23;6.75;;;3.30;;
13891;SDS011;7016;48.172;8.058;2023-04-28T12:08:49;4.53;;;2.92;;
13891;SDS011;7016;48.172;8.058;2023-04-28T12:11:16;4.88;;;2.95;;
13891;SDS011;7016;48.172;8.058;2023-04-28T12:13:43;8.35;;;3.58;;
13891;SDS011;7016;48.172;8.058;2023-04-28T12:16:35;6.85;;;2.80;;
13891;SDS011;7016;48.172;8.058;2023-04-28T12:19:08;6.07;;;2.97;;
13891;SDS011;7016;48.172;8.058;2023-04-28T12:21:35;4.28;;;2.60;;
13891;SDS011;7016;48.172;8.058;2023-04-28T12:24:15;3.17;;;2.15;;
13891;SDS011;7016;48.172;8.058;2023-04-28T12:26:42;2.92;;;2.33;;
13891;SDS011;7016;48.172;8.058;2023-04-28T12:29:08;5.35;;;2.28;;
13891;SDS011;7016;48.172;8.058;2023-04-28T12:31:50;4.47;;;2.60;;
13891;SDS011;7016;48.172;8.058;2023-04-28T12:34:17;3.35;;;2.53;;
13891;SDS011;7016;48.172;8.058;2023-04-28T12:36:43;4.57;;;2.20;;
13891;SDS011;7016;48.172;8.058;2023-04-28T12:39:13;3.10;;;1.92;;
13891;SDS011;7016;48.172;8.058;2023-04-28T12:41:44;6.80;;;1.67;;
13891;SDS011;7016;48.172;8.058;2023-04-28T12:44:10;6.65;;;1.50;;
13891;SDS011;7016;48.172;8.058;2023-04-28T12:46:35;4.88;;;1.58;;
13891;SDS011;7016;48.172;8.058;2023-04-28T12:49:01;6.30;;;1.60;;
13891;SDS011;7016;48.172;8.058;2023-04-28T12:51:31;3.03;;;1.50;;
13891;SDS011;7016;48.172;8.058;2023-04-28T12:54:18;4.45;;;2.55;;
13891;SDS011;7016;48.172;8.058;2023-04-28T12:56:43;4.25;;;2.50;;
13891;SDS011;7016;48.172;8.058;2023-04-28T12:59:09;4.68;;;1.42;;
13891;SDS011;7016;48.172;8.058;2023-04-28T13:01:35;1.83;;;1.08;;
13891;SDS011;7016;48.172;8.058;2023-04-28T13:04:01;2.78;;;1.20;;
13891;SDS011;7016;48.172;8.058;2023-04-28T13:06:27;2.97;;;1.33;;
13891;SDS011;7016;48.172;8.058;2023-04-28T13:08:52;2.38;;;1.27;;
13891;SDS011;7016;48.172;8.058;2023-04-28T13:11:18;3.25;;;1.25;;
13891;SDS011;7016;48.172;8.058;2023-04-28T13:13:45;2.35;;;1.30;;
13891;SDS011;7016;48.172;8.058;2023-04-28T13:16:11;3.03;;;1.27;;
13891;SDS011;7016;48.172;8.058;2023-04-28T13:18:38;2.25;;;1.40;;
13891;SDS011;7016;48.172;8.058;2023-04-28T13:21:04;5.35;;;1.40;;
13891;SDS011;7016;48.172;8.058;2023-04-28T13:23:29;3.47;;;1.30;;
13891;SDS011;7016;48.172;8.058;2023-04-28T13:25:55;1.60;;;1.10;;
13891;SDS011;7016;48.172;8.058;2023-04-28T13:28:21;2.35;;;1.30;;
13891;SDS011;7016;48.172;8.058;2023-04-28T13:30:47;3.30;;;1.15;;
13891;SDS011;7016;48.172;8.058;2023-04-28T13:33:12;2.03;;;1.33;;
13891;SDS011;7016;48.172;8.058;2023-04-28T13:35:38;1.33;;;1.10;;
13891;SDS011;7016;48.172;8.058;2023-04-28T13:38:04;5.05;;;1.50;;
13891;SDS011;7016;48.172;8.058;2023-04-28T13:40:30;4.93;;;1.45;;
13891;SDS011;7016;48.172;8.058;2023-04-28T13:42:57;2.55;;;1.48;;
13891;SDS011;7016;48.172;8.058;2023-04-28T13:45:23;2.78;;;1.65;;
13891;SDS011;7016;48.172;8.058;2023-04-28T13:47:50;2.35;;;1.42;;
13891;SDS011;7016;48.172;8.058;2023-04-28T13:50:16;2.40;;;1.25;;
13891;SDS011;7016;48.172;8.058;2023-04-28T13:52:41;1.63;;;1.15;;
13891;SDS011;7016;48.172;8.058;2023-04-28T13:55:07;2.70;;;1.55;;
13891;SDS011;7016;48.172;8.058;2023-04-28T13:57:33;4.78;;;1.80;;
13891;SDS011;7016;48.172;8.058;2023-04-28T13:59:59;3.15;;;1.60;;
13891;SDS011;7016;48.172;8.058;2023-04-28T14:02:25;2.10;;;1.20;;
13891;SDS011;7016;48.172;8.058;2023-04-28T14:04:51;1.92;;;1.30;;
13891;SDS011;7016;48.172;8.058;2023-04-28T14:07:17;2.58;;;1.30;;
13891;SDS011;7016;48.172;8.058;2023-04-28T14:09:43;2.30;;;1.40;;
13891;SDS011;7016;48.172;8.058;2023-04-28T14:12:09;5.03;;;1.45;;
13891;SDS011;7016;48.172;8.058;2023-04-28T14:14:35;2.97;;;1.33;;
13891;SDS011;7016;48.172;8.058;2023-04-28T14:17:01;4.88;;;1.80;;
13891;SDS011;7016;48.172;8.058;2023-04-28T14:19:27;8.20;;;1.80;;
13891;SDS011;7016;48.172;8.058;2023-04-28T14:21:53;3.20;;;1.50;;
13891;SDS011;7016;48.172;8.058;2023-04-28T14:24:19;5.38;;;1.85;;
13891;SDS011;7016;48.172;8.058;2023-04-28T14:26:45;3.72;;;1.75;;
13891;SDS011;7016;48.172;8.058;2023-04-28T14:29:13;4.80;;;1.52;;
13891;SDS011;7016;48.172;8.058;2023-04-28T14:31:39;4.03;;;1.60;;
13891;SDS011;7016;48.172;8.058;2023-04-28T14:34:05;3.78;;;1.63;;
13891;SDS011;7016;48.172;8.058;2023-04-28T14:36:31;6.78;;;1.55;;
13891;SDS011;7016;48.172;8.058;2023-04-28T14:38:57;3.75;;;1.92;;
13891;SDS011;7016;48.172;8.058;2023-04-28T14:41:23;3.63;;;1.60;;
13891;SDS011;7016;48.172;8.058;2023-04-28T14:43:49;4.47;;;1.70;;
13891;SDS011;7016;48.172;8.058;2023-04-28T14:46:16;5.45;;;1.90;;
13891;SDS011;7016;48.172;8.058;2023-04-28T14:48:47;3.25;;;1.73;;
13891;SDS011;7016;48.172;8.058;2023-04-28T14:51:14;2.40;;;1.58;;
13891;SDS011;7016;48.172;8.058;2023-04-28T14:53:39;5.45;;;1.75;;
13891;SDS011;7016;48.172;8.058;2023-04-28T14:56:06;5.75;;;1.80;;
13891;SDS011;7016;48.172;8.058;2023-04-28T14:58:33;5.88;;;1.60;;
13891;SDS011;7016;48.172;8.058;2023-04-28T15:00:59;2.03;;;1.40;;
13891;SDS011;7016;48.172;8.058;2023-04-28T15:03:25;7.13;;;1.80;;
13891;SDS011;7016;48.172;8.058;2023-04-28T15:05:51;5.70;;;1.70;;
13891;SDS011;7016;48.172;8.058;2023-04-28T15:08:17;3.65;;;1.60;;
13891;SDS011;7016;48.172;8.058;2023-04-28T15:10:43;3.08;;;1.60;;
13891;SDS011;7016;48.172;8.058;2023-04-28T15:13:09;4.88;;;1.42;;
13891;SDS011;7016;48.172;8.058;2023-04-28T15:15:35;1.88;;;1.40;;
13891;SDS011;7016;48.172;8.058;2023-04-28T15:18:01;7.05;;;1.70;;
13891;SDS011;7016;48.172;8.058;2023-04-28T15:20:29;2.78;;;1.40;;
13891;SDS011;7016;48.172;8.058;2023-04-28T15:22:57;2.97;;;1.45;;
13891;SDS011;7016;48.172;8.058;2023-04-28T15:25:23;2.33;;;1.10;;